sensor_id;sensor_type;location;lat;lon;timestamp;temperature;humidity
23579;DHT22;11967;50.852;4.400;2023-09-19T00:00:20;19.20;99.90
23579;DHT22;11967;50.852;4.400;2023-09-19T00:02:58;19.20;99.90
23579;DHT22;11967;50.852;4.400;2023-09-19T00:05:28;19.20;99.90
23579;DHT22;11967;50.852;4.400;2023-09-19T00:07:55;19.20;99.90
23579;DHT22;11967;50.852;4.400;2023-09-19T00:10:28;19.10;99.90
23579;DHT22;11967;50.852;4.400;2023-09-19T00:12:58;19.10;99.90
23579;DHT22;11967;50.852;4.400;2023-09-19T00:15:37;19.10;99.90
23579;DHT22;11967;50.852;4.400;2023-09-19T00:18:04;19.20;99.90
23579;DHT22;11967;50.852;4.400;2023-09-19T00:20:35;19.10;99.90
23579;DHT22;11967;50.852;4.400;2023-09-19T00:23:00;19.20;99.90
23579;DHT22;11967;50.852;4.400;2023-09-19T00:25:37;19.10;99.90
23579;DHT22;11967;50.852;4.400;2023-09-19T00:28:06;19.10;99.90
23579;DHT22;11967;50.852;4.400;2023-09-19T00:30:33;19.00;99.90
23579;DHT22;11967;50.852;4.400;2023-09-19T00:32:59;19.00;99.90
23579;DHT22;11967;50.852;4.400;2023-09-19T00:35:26;18.90;99.90
23579;DHT22;11967;50.852;4.400;2023-09-19T00:37:53;18.90;99.90
23579;DHT22;11967;50.852;4.400;2023-09-19T00:40:19;18.90;99.90
23579;DHT22;11967;50.852;4.400;2023-09-19T00:42:47;18.90;99.90
23579;DHT22;11967;50.852;4.400;2023-09-19T00:45:15;19.00;99.90
23579;DHT22;11967;50.852;4.400;2023-09-19T00:47:45;18.90;99.90
23579;DHT22;11967;50.852;4.400;2023-09-19T00:50:13;18.90;99.90
23579;DHT22;11967;50.852;4.400;2023-09-19T00:52:41;18.90;99.90
23579;DHT22;11967;50.852;4.400;2023-09-19T00:55:10;18.90;99.90
23579;DHT22;11967;50.852;4.400;2023-09-19T00:57:37;19.00;99.90
23579;DHT22;11967;50.852;4.400;2023-09-19T01:00:08;19.00;99.90
23579;DHT22;11967;50.852;4.400;2023-09-19T01:02:37;19.00;99.90
23579;DHT22;11967;50.852;4.400;2023-09-19T01:05:03;19.00;99.90
23579;DHT22;11967;50.852;4.400;2023-09-19T01:07:32;19.00;99.90
23579;DHT22;11967;50.852;4.400;2023-09-19T01:10:04;19.10;99.90
23579;DHT22;11967;50.852;4.400;2023-09-19T01:20:59;18.80;99.90
23579;DHT22;11967;50.852;4.400;2023-09-19T01:29:39;18.90;99.90
23579;DHT22;11967;50.852;4.400;2023-09-19T01:32:08;18.80;99.90
23579;DHT22;11967;50.852;4.400;2023-09-19T01:34:49;18.70;99.90
23579;DHT22;11967;50.852;4.400;2023-09-19T01:37:19;18.80;99.90
23579;DHT22;11967;50.852;4.400;2023-09-19T01:39:51;18.80;99.90
23579;DHT22;11967;50.852;4.400;2023-09-19T01:45:14;18.90;99.90
23579;DHT22;11967;50.852;4.400;2023-09-19T01:47:55;18.80;99.90
23579;DHT22;11967;50.852;4.400;2023-09-19T01:50:44;18.70;99.90
23579;DHT22;11967;50.852;4.400;2023-09-19T01:53:28;18.60;99.90
23579;DHT22;11967;50.852;4.400;2023-09-19T01:55:57;18.70;99.90
23579;DHT22;11967;50.852;4.400;2023-09-19T01:58:44;18.70;99.90
23579;DHT22;11967;50.852;4.400;2023-09-19T02:01:12;18.70;99.90
23579;DHT22;11967;50.852;4.400;2023-09-19T02:03:42;18.70;99.90
23579;DHT22;11967;50.852;4.400;2023-09-19T02:06:14;18.70;99.90
23579;DHT22;11967;50.852;4.400;2023-09-19T02:08:41;18.70;99.90
23579;DHT22;11967;50.852;4.400;2023-09-19T02:11:07;18.70;99.90
23579;DHT22;11967;50.852;4.400;2023-09-19T02:13:32;18.60;99.90
23579;DHT22;11967;50.852;4.400;2023-09-19T02:15:59;18.60;99.90
23579;DHT22;11967;50.852;4.400;2023-09-19T02:18:26;18.60;99.90
23579;DHT22;11967;50.852;4.400;2023-09-19T02:20:53;18.70;99.90
23579;DHT22;11967;50.852;4.400;2023-09-19T02:23:20;18.70;99.90
23579;DHT22;11967;50.852;4.400;2023-09-19T02:25:55;18.60;99.90
23579;DHT22;11967;50.852;4.400;2023-09-19T02:28:22;18.70;99.90
23579;DHT22;11967;50.852;4.400;2023-09-19T02:30:48;18.80;99.90
23579;DHT22;11967;50.852;4.400;2023-09-19T02:33:15;18.70;99.90
23579;DHT22;11967;50.852;4.400;2023-09-19T02:35:42;18.80;99.90
23579;DHT22;11967;50.852;4.400;2023-09-19T02:38:08;18.70;99.90
23579;DHT22;11967;50.852;4.400;2023-09-19T02:40:37;18.70;99.90
23579;DHT22;11967;50.852;4.400;2023-09-19T02:43:02;18.60;99.90
23579;DHT22;11967;50.852;4.400;2023-09-19T02:45:28;18.70;99.90
23579;DHT22;11967;50.852;4.400;2023-09-19T02:47:55;18.60;99.90
23579;DHT22;11967;50.852;4.400;2023-09-19T02:50:21;18.60;99.90
23579;DHT22;11967;50.852;4.400;2023-09-19T02:52:47;18.60;99.90
23579;DHT22;11967;50.852;4.400;2023-09-19T02:55:15;18.60;99.90
23579;DHT22;11967;50.852;4.400;2023-09-19T02:57:48;18.60;99.90
23579;DHT22;11967;50.852;4.400;2023-09-19T03:00:15;18.60;99.90
23579;DHT22;11967;50.852;4.400;2023-09-19T03:02:41;18.40;99.90
23579;DHT22;11967;50.852;4.400;2023-09-19T03:05:07;18.50;99.90
23579;DHT22;11967;50.852;4.400;2023-09-19T03:07:33;18.50;99.90
23579;DHT22;11967;50.852;4.400;2023-09-19T03:10:00;18.50;99.90
23579;DHT22;11967;50.852;4.400;2023-09-19T03:12:28;18.30;99.90
23579;DHT22;11967;50.852;4.400;2023-09-19T03:14:54;18.30;99.90
23579;DHT22;11967;50.852;4.400;2023-09-19T03:17:20;18.40;99.90
23579;DHT22;11967;50.852;4.400;2023-09-19T03:19:46;18.40;99.90
23579;DHT22;11967;50.852;4.400;2023-09-19T03:22:14;18.30;99.90
23579;DHT22;11967;50.852;4.400;2023-09-19T03:24:40;18.30;99.90
23579;DHT22;11967;50.852;4.400;2023-09-19T03:27:05;18.30;99.90
23579;DHT22;11967;50.852;4.400;2023-09-19T03:29:31;18.30;99.90
23579;DHT22;11967;50.852;4.400;2023-09-19T03:31:57;18.20;99.90
23579;DHT22;11967;50.852;4.400;2023-09-19T03:34:22;18.30;99.90
23579;DHT22;11967;50.852;4.400;2023-09-19T03:36:48;18.40;99.90
23579;DHT22;11967;50.852;4.400;2023-09-19T03:39:14;18.30;99.90
23579;DHT22;11967;50.852;4.400;2023-09-19T03:41:41;18.30;99.90
23579;DHT22;11967;50.852;4.400;2023-09-19T03:44:07;18.30;99.90
23579;DHT22;11967;50.852;4.400;2023-09-19T03:46:33;18.20;99.90
23579;DHT22;11967;50.852;4.400;2023-09-19T03:49:01;18.20;99.90
23579;DHT22;11967;50.852;4.400;2023-09-19T03:51:26;18.20;99.90
23579;DHT22;11967;50.852;4.400;2023-09-19T03:53:52;18.20;99.90
23579;DHT22;11967;50.852;4.400;2023-09-19T03:56:17;18.30;99.90
23579;DHT22;11967;50.852;4.400;2023-09-19T03:58:43;18.10;99.90
23579;DHT22;11967;50.852;4.400;2023-09-19T04:01:10;18.10;99.90
23579;DHT22;11967;50.852;4.400;2023-09-19T04:03:35;18.10;99.90
23579;DHT22;11967;50.852;4.400;2023-09-19T04:06:15;18.00;99.90
23579;DHT22;11967;50.852;4.400;2023-09-19T04:08:41;18.00;99.90
23579;DHT22;11967;50.852;4.400;2023-09-19T04:11:07;18.00;99.90
23579;DHT22;11967;50.852;4.400;2023-09-19T04:13:33;18.00;99.90
23579;DHT22;11967;50.852;4.400;2023-09-19T04:15:58;18.00;99.90
23579;DHT22;11967;50.852;4.400;2023-09-19T04:18:25;18.00;99.90
23579;DHT22;11967;50.852;4.400;2023-09-19T04:20:51;18.00;99.90
23579;DHT22;11967;50.852;4.400;2023-09-19T04:23:16;18.10;99.90
23579;DHT22;11967;50.852;4.400;2023-09-19T04:25:43;18.10;99.90
23579;DHT22;11967;50.852;4.400;2023-09-19T04:28:09;18.20;99.90
23579;DHT22;11967;50.852;4.400;2023-09-19T04:30:38;18.10;99.90
23579;DHT22;11967;50.852;4.400;2023-09-19T04:33:06;18.00;99.90
23579;DHT22;11967;50.852;4.400;2023-09-19T04:35:32;18.00;99.90
23579;DHT22;11967;50.852;4.400;2023-09-19T04:37:58;18.00;99.90
23579;DHT22;11967;50.852;4.400;2023-09-19T04:40:23;18.10;99.90
23579;DHT22;11967;50.852;4.400;2023-09-19T04:42:56;18.00;99.90
23579;DHT22;11967;50.852;4.400;2023-09-19T04:45:26;18.10;99.90
23579;DHT22;11967;50.852;4.400;2023-09-19T04:47:52;18.00;99.90
23579;DHT22;11967;50.852;4.400;2023-09-19T04:50:19;18.10;99.90
23579;DHT22;11967;50.852;4.400;2023-09-19T04:52:49;18.10;99.90
23579;DHT22;11967;50.852;4.400;2023-09-19T04:55:17;18.10;99.90
23579;DHT22;11967;50.852;4.400;2023-09-19T04:57:49;18.00;99.90
23579;DHT22;11967;50.852;4.400;2023-09-19T05:00:17;18.10;99.90
23579;DHT22;11967;50.852;4.400;2023-09-19T05:02:45;18.10;99.90
23579;DHT22;11967;50.852;4.400;2023-09-19T05:05:11;18.00;99.90
23579;DHT22;11967;50.852;4.400;2023-09-19T05:07:41;18.10;99.90
23579;DHT22;11967;50.852;4.400;2023-09-19T05:10:08;18.00;99.90
23579;DHT22;11967;50.852;4.400;2023-09-19T05:12:34;18.00;99.90
23579;DHT22;11967;50.852;4.400;2023-09-19T05:15:04;17.90;99.90
23579;DHT22;11967;50.852;4.400;2023-09-19T05:17:32;17.90;99.90
23579;DHT22;11967;50.852;4.400;2023-09-19T05:19:58;17.80;99.90
23579;DHT22;11967;50.852;4.400;2023-09-19T05:22:26;17.90;99.90
23579;DHT22;11967;50.852;4.400;2023-09-19T05:24:52;17.80;99.90
23579;DHT22;11967;50.852;4.400;2023-09-19T05:27:18;17.70;99.90
23579;DHT22;11967;50.852;4.400;2023-09-19T05:29:46;17.70;99.90
23579;DHT22;11967;50.852;4.400;2023-09-19T05:32:13;17.60;99.90
23579;DHT22;11967;50.852;4.400;2023-09-19T05:34:39;17.70;99.90
23579;DHT22;11967;50.852;4.400;2023-09-19T05:37:05;17.60;99.90
23579;DHT22;11967;50.852;4.400;2023-09-19T05:39:33;17.70;99.90
23579;DHT22;11967;50.852;4.400;2023-09-19T05:41:58;17.70;99.90
23579;DHT22;11967;50.852;4.400;2023-09-19T05:44:25;17.80;99.90
23579;DHT22;11967;50.852;4.400;2023-09-19T05:46:51;17.70;99.90
23579;DHT22;11967;50.852;4.400;2023-09-19T05:49:17;17.70;99.90
23579;DHT22;11967;50.852;4.400;2023-09-19T05:51:43;17.60;99.90
23579;DHT22;11967;50.852;4.400;2023-09-19T05:54:09;17.60;99.90
23579;DHT22;11967;50.852;4.400;2023-09-19T05:56:36;17.60;99.90
23579;DHT22;11967;50.852;4.400;2023-09-19T05:59:02;17.60;99.90
23579;DHT22;11967;50.852;4.400;2023-09-19T06:01:29;17.60;99.90
23579;DHT22;11967;50.852;4.400;2023-09-19T06:03:56;17.70;99.90
23579;DHT22;11967;50.852;4.400;2023-09-19T06:06:22;17.80;99.90
23579;DHT22;11967;50.852;4.400;2023-09-19T06:08:49;17.80;99.90
23579;DHT22;11967;50.852;4.400;2023-09-19T06:11:16;17.70;99.90
23579;DHT22;11967;50.852;4.400;2023-09-19T06:13:41;17.60;99.90
23579;DHT22;11967;50.852;4.400;2023-09-19T06:16:07;17.70;99.90
23579;DHT22;11967;50.852;4.400;2023-09-19T06:18:34;17.60;99.90
23579;DHT22;11967;50.852;4.400;2023-09-19T06:21:01;17.70;99.90
23579;DHT22;11967;50.852;4.400;2023-09-19T06:23:33;17.80;99.90
23579;DHT22;11967;50.852;4.400;2023-09-19T06:25:59;17.80;99.90
23579;DHT22;11967;50.852;4.400;2023-09-19T06:28:25;17.80;99.90
23579;DHT22;11967;50.852;4.400;2023-09-19T06:30:56;17.70;99.90
23579;DHT22;11967;50.852;4.400;2023-09-19T06:33:22;17.70;99.90
23579;DHT22;11967;50.852;4.400;2023-09-19T06:35:48;17.60;99.90
23579;DHT22;11967;50.852;4.400;2023-09-19T06:38:14;17.60;99.90
23579;DHT22;11967;50.852;4.400;2023-09-19T06:40:40;17.60;99.90
23579;DHT22;11967;50.852;4.400;2023-09-19T06:43:12;17.50;99.90
23579;DHT22;11967;50.852;4.400;2023-09-19T06:45:37;17.70;99.90
23579;DHT22;11967;50.852;4.400;2023-09-19T06:48:03;17.80;99.90
23579;DHT22;11967;50.852;4.400;2023-09-19T06:50:31;17.80;99.90
23579;DHT22;11967;50.852;4.400;2023-09-19T06:52:58;17.80;99.90
23579;DHT22;11967;50.852;4.400;2023-09-19T06:55:25;17.70;99.90
23579;DHT22;11967;50.852;4.400;2023-09-19T06:57:53;17.80;99.90
23579;DHT22;11967;50.852;4.400;2023-09-19T07:00:22;17.80;99.90
23579;DHT22;11967;50.852;4.400;2023-09-19T07:03:06;17.90;99.90
23579;DHT22;11967;50.852;4.400;2023-09-19T07:05:34;18.00;99.90
23579;DHT22;11967;50.852;4.400;2023-09-19T07:08:05;18.00;99.90
23579;DHT22;11967;50.852;4.400;2023-09-19T07:10:32;18.00;99.90
23579;DHT22;11967;50.852;4.400;2023-09-19T07:13:05;18.00;99.90
23579;DHT22;11967;50.852;4.400;2023-09-19T07:15:38;17.90;99.90
23579;DHT22;11967;50.852;4.400;2023-09-19T07:18:06;17.90;99.90
23579;DHT22;11967;50.852;4.400;2023-09-19T07:20:32;17.80;99.90
23579;DHT22;11967;50.852;4.400;2023-09-19T07:22:59;17.80;99.90
23579;DHT22;11967;50.852;4.400;2023-09-19T07:25:26;17.80;99.90
23579;DHT22;11967;50.852;4.400;2023-09-19T07:27:52;17.80;99.90
23579;DHT22;11967;50.852;4.400;2023-09-19T07:30:20;17.80;99.90
23579;DHT22;11967;50.852;4.400;2023-09-19T07:32:45;17.80;99.90
23579;DHT22;11967;50.852;4.400;2023-09-19T07:35:11;17.90;99.90
23579;DHT22;11967;50.852;4.400;2023-09-19T07:37:37;17.90;99.90
23579;DHT22;11967;50.852;4.400;2023-09-19T07:40:03;17.90;99.90
23579;DHT22;11967;50.852;4.400;2023-09-19T07:42:33;17.90;99.90
23579;DHT22;11967;50.852;4.400;2023-09-19T07:45:01;18.00;99.90
23579;DHT22;11967;50.852;4.400;2023-09-19T07:47:27;18.00;99.90
23579;DHT22;11967;50.852;4.400;2023-09-19T07:49:53;18.00;99.90
23579;DHT22;11967;50.852;4.400;2023-09-19T07:52:20;18.00;99.90
23579;DHT22;11967;50.852;4.400;2023-09-19T07:54:46;18.10;99.90
23579;DHT22;11967;50.852;4.400;2023-09-19T07:57:14;18.00;99.90
23579;DHT22;11967;50.852;4.400;2023-09-19T07:59:40;18.00;99.90
23579;DHT22;11967;50.852;4.400;2023-09-19T08:02:08;18.10;99.90
23579;DHT22;11967;50.852;4.400;2023-09-19T08:04:42;18.20;99.90
23579;DHT22;11967;50.852;4.400;2023-09-19T08:07:07;18.10;99.90
23579;DHT22;11967;50.852;4.400;2023-09-19T08:09:36;18.10;99.90
23579;DHT22;11967;50.852;4.400;2023-09-19T08:12:04;18.20;99.90
23579;DHT22;11967;50.852;4.400;2023-09-19T08:14:30;18.20;99.90
23579;DHT22;11967;50.852;4.400;2023-09-19T08:16:59;18.10;99.90
23579;DHT22;11967;50.852;4.400;2023-09-19T08:19:26;18.10;99.90
23579;DHT22;11967;50.852;4.400;2023-09-19T08:21:57;18.20;99.90
23579;DHT22;11967;50.852;4.400;2023-09-19T08:24:29;18.20;99.90
23579;DHT22;11967;50.852;4.400;2023-09-19T08:26:56;18.20;99.90
23579;DHT22;11967;50.852;4.400;2023-09-19T08:29:23;18.20;99.90
23579;DHT22;11967;50.852;4.400;2023-09-19T08:31:58;18.30;99.90
23579;DHT22;11967;50.852;4.400;2023-09-19T08:34:24;18.30;99.90
23579;DHT22;11967;50.852;4.400;2023-09-19T08:36:54;18.30;99.90
23579;DHT22;11967;50.852;4.400;2023-09-19T08:39:24;18.40;99.90
23579;DHT22;11967;50.852;4.400;2023-09-19T08:41:49;18.30;99.90
23579;DHT22;11967;50.852;4.400;2023-09-19T08:44:22;18.40;99.90
23579;DHT22;11967;50.852;4.400;2023-09-19T08:46:48;18.40;99.90
23579;DHT22;11967;50.852;4.400;2023-09-19T08:49:27;18.40;99.90
23579;DHT22;11967;50.852;4.400;2023-09-19T08:52:08;18.50;99.90
23579;DHT22;11967;50.852;4.400;2023-09-19T08:54:37;18.60;99.90
23579;DHT22;11967;50.852;4.400;2023-09-19T08:57:07;18.70;99.90
23579;DHT22;11967;50.852;4.400;2023-09-19T08:59:37;18.70;99.90
23579;DHT22;11967;50.852;4.400;2023-09-19T09:02:11;18.70;99.90
23579;DHT22;11967;50.852;4.400;2023-09-19T09:04:40;18.60;99.90
23579;DHT22;11967;50.852;4.400;2023-09-19T09:07:11;18.70;99.90
23579;DHT22;11967;50.852;4.400;2023-09-19T09:09:38;18.70;99.90
23579;DHT22;11967;50.852;4.400;2023-09-19T09:12:12;18.70;99.90
23579;DHT22;11967;50.852;4.400;2023-09-19T09:14:44;18.90;99.90
23579;DHT22;11967;50.852;4.400;2023-09-19T09:17:12;19.00;99.90
23579;DHT22;11967;50.852;4.400;2023-09-19T09:19:38;19.00;99.90
23579;DHT22;11967;50.852;4.400;2023-09-19T09:22:10;19.00;99.90
23579;DHT22;11967;50.852;4.400;2023-09-19T09:24:37;19.10;99.90
23579;DHT22;11967;50.852;4.400;2023-09-19T09:27:06;19.20;99.90
23579;DHT22;11967;50.852;4.400;2023-09-19T09:29:46;19.20;99.90
23579;DHT22;11967;50.852;4.400;2023-09-19T09:32:29;19.30;99.90
23579;DHT22;11967;50.852;4.400;2023-09-19T09:34:58;19.40;99.90
23579;DHT22;11967;50.852;4.400;2023-09-19T09:37:24;19.40;99.90
23579;DHT22;11967;50.852;4.400;2023-09-19T09:39:57;19.30;99.90
23579;DHT22;11967;50.852;4.400;2023-09-19T09:42:32;19.30;99.90
23579;DHT22;11967;50.852;4.400;2023-09-19T09:45:20;19.30;99.90
23579;DHT22;11967;50.852;4.400;2023-09-19T09:47:58;19.30;99.90
23579;DHT22;11967;50.852;4.400;2023-09-19T09:50:32;19.20;99.90
23579;DHT22;11967;50.852;4.400;2023-09-19T09:53:27;19.10;99.90
23579;DHT22;11967;50.852;4.400;2023-09-19T09:56:04;19.20;99.90
23579;DHT22;11967;50.852;4.400;2023-09-19T09:58:51;19.20;99.90
23579;DHT22;11967;50.852;4.400;2023-09-19T10:01:21;19.20;99.90
23579;DHT22;11967;50.852;4.400;2023-09-19T10:03:57;19.10;99.90
23579;DHT22;11967;50.852;4.400;2023-09-19T10:06:23;19.20;99.90
23579;DHT22;11967;50.852;4.400;2023-09-19T10:09:04;19.20;99.90
23579;DHT22;11967;50.852;4.400;2023-09-19T10:12:00;19.30;99.90
23579;DHT22;11967;50.852;4.400;2023-09-19T10:14:30;19.30;99.90
23579;DHT22;11967;50.852;4.400;2023-09-19T10:16:59;19.30;99.90
23579;DHT22;11967;50.852;4.400;2023-09-19T10:19:56;19.30;99.90
23579;DHT22;11967;50.852;4.400;2023-09-19T10:22:31;19.30;99.90
23579;DHT22;11967;50.852;4.400;2023-09-19T10:25:01;19.40;99.90
23579;DHT22;11967;50.852;4.400;2023-09-19T10:27:29;19.50;99.90
23579;DHT22;11967;50.852;4.400;2023-09-19T10:30:05;19.70;99.90
23579;DHT22;11967;50.852;4.400;2023-09-19T10:32:33;19.70;99.90
23579;DHT22;11967;50.852;4.400;2023-09-19T10:35:01;19.80;99.90
23579;DHT22;11967;50.852;4.400;2023-09-19T10:37:32;19.80;99.90
23579;DHT22;11967;50.852;4.400;2023-09-19T10:39:59;20.00;99.90
23579;DHT22;11967;50.852;4.400;2023-09-19T10:42:25;20.10;99.90
23579;DHT22;11967;50.852;4.400;2023-09-19T10:44:55;20.20;99.90
23579;DHT22;11967;50.852;4.400;2023-09-19T10:47:27;20.20;99.90
23579;DHT22;11967;50.852;4.400;2023-09-19T10:49:52;20.10;99.90
23579;DHT22;11967;50.852;4.400;2023-09-19T10:52:21;20.20;99.90
23579;DHT22;11967;50.852;4.400;2023-09-19T10:54:51;20.30;99.90
23579;DHT22;11967;50.852;4.400;2023-09-19T10:57:21;20.30;99.90
23579;DHT22;11967;50.852;4.400;2023-09-19T11:00:08;20.30;99.90
23579;DHT22;11967;50.852;4.400;2023-09-19T11:05:40;20.40;99.90
23579;DHT22;11967;50.852;4.400;2023-09-19T11:08:10;20.40;99.90
23579;DHT22;11967;50.852;4.400;2023-09-19T11:10:48;20.60;99.90
23579;DHT22;11967;50.852;4.400;2023-09-19T11:13:27;20.70;99.90
23579;DHT22;11967;50.852;4.400;2023-09-19T11:26:50;21.20;99.90
23579;DHT22;11967;50.852;4.400;2023-09-19T11:29:27;21.30;99.90
23579;DHT22;11967;50.852;4.400;2023-09-19T11:31:55;21.30;99.90
23579;DHT22;11967;50.852;4.400;2023-09-19T11:34:37;21.30;99.90
23579;DHT22;11967;50.852;4.400;2023-09-19T11:40:07;21.00;99.90
23579;DHT22;11967;50.852;4.400;2023-09-19T11:42:46;20.90;99.90
23579;DHT22;11967;50.852;4.400;2023-09-19T11:48:26;20.70;99.90
23579;DHT22;11967;50.852;4.400;2023-09-19T11:50:53;20.40;99.90
23579;DHT22;11967;50.852;4.400;2023-09-19T11:53:19;20.50;99.90
23579;DHT22;11967;50.852;4.400;2023-09-19T11:55:45;20.60;99.90
23579;DHT22;11967;50.852;4.400;2023-09-19T11:58:18;20.60;99.90
23579;DHT22;11967;50.852;4.400;2023-09-19T12:00:45;20.80;99.90
23579;DHT22;11967;50.852;4.400;2023-09-19T12:03:12;20.70;99.90
23579;DHT22;11967;50.852;4.400;2023-09-19T12:05:39;20.70;99.90
23579;DHT22;11967;50.852;4.400;2023-09-19T12:08:06;20.70;99.90
23579;DHT22;11967;50.852;4.400;2023-09-19T12:10:56;20.60;99.90
23579;DHT22;11967;50.852;4.400;2023-09-19T12:13:22;20.60;99.90
23579;DHT22;11967;50.852;4.400;2023-09-19T12:15:47;20.40;99.90
23579;DHT22;11967;50.852;4.400;2023-09-19T12:18:29;20.40;99.90
23579;DHT22;11967;50.852;4.400;2023-09-19T12:20:55;20.40;99.90
23579;DHT22;11967;50.852;4.400;2023-09-19T12:23:23;20.40;99.90
23579;DHT22;11967;50.852;4.400;2023-09-19T12:25:48;20.40;99.90
23579;DHT22;11967;50.852;4.400;2023-09-19T12:28:19;20.50;99.90
23579;DHT22;11967;50.852;4.400;2023-09-19T12:30:47;20.50;99.90
23579;DHT22;11967;50.852;4.400;2023-09-19T12:33:18;20.60;99.90
23579;DHT22;11967;50.852;4.400;2023-09-19T12:35:45;20.60;99.90
23579;DHT22;11967;50.852;4.400;2023-09-19T12:38:21;20.50;99.90
23579;DHT22;11967;50.852;4.400;2023-09-19T12:40:50;20.50;99.90
23579;DHT22;11967;50.852;4.400;2023-09-19T12:43:18;20.50;99.90
23579;DHT22;11967;50.852;4.400;2023-09-19T12:45:43;20.50;99.90
23579;DHT22;11967;50.852;4.400;2023-09-19T12:48:24;20.50;99.90
23579;DHT22;11967;50.852;4.400;2023-09-19T12:51:06;20.60;99.90
23579;DHT22;11967;50.852;4.400;2023-09-19T12:53:34;20.70;99.90
23579;DHT22;11967;50.852;4.400;2023-09-19T12:56:05;20.70;99.90
23579;DHT22;11967;50.852;4.400;2023-09-19T12:58:36;20.70;99.90
23579;DHT22;11967;50.852;4.400;2023-09-19T13:01:16;20.70;99.90
23579;DHT22;11967;50.852;4.400;2023-09-19T13:03:42;20.70;99.90
23579;DHT22;11967;50.852;4.400;2023-09-19T13:06:08;20.70;99.90
23579;DHT22;11967;50.852;4.400;2023-09-19T13:08:38;20.70;99.90
23579;DHT22;11967;50.852;4.400;2023-09-19T13:11:17;20.60;99.90
23579;DHT22;11967;50.852;4.400;2023-09-19T13:14:13;20.60;99.90
23579;DHT22;11967;50.852;4.400;2023-09-19T13:19:43;20.70;99.90
23579;DHT22;11967;50.852;4.400;2023-09-19T13:25:01;20.50;99.90
23579;DHT22;11967;50.852;4.400;2023-09-19T13:27:30;20.60;99.90
23579;DHT22;11967;50.852;4.400;2023-09-19T13:29:55;20.70;99.90
23579;DHT22;11967;50.852;4.400;2023-09-19T13:32:21;20.60;99.90
23579;DHT22;11967;50.852;4.400;2023-09-19T13:34:47;20.60;99.90
23579;DHT22;11967;50.852;4.400;2023-09-19T13:37:14;20.60;99.90
23579;DHT22;11967;50.852;4.400;2023-09-19T13:39:41;20.70;99.90
23579;DHT22;11967;50.852;4.400;2023-09-19T13:42:13;20.70;99.90
23579;DHT22;11967;50.852;4.400;2023-09-19T13:44:38;20.70;99.90
23579;DHT22;11967;50.852;4.400;2023-09-19T13:47:06;20.70;99.90
23579;DHT22;11967;50.852;4.400;2023-09-19T13:49:35;20.90;99.90
23579;DHT22;11967;50.852;4.400;2023-09-19T13:52:02;20.90;99.90
23579;DHT22;11967;50.852;4.400;2023-09-19T13:54:31;20.90;99.90
23579;DHT22;11967;50.852;4.400;2023-09-19T13:56:56;20.80;99.90
23579;DHT22;11967;50.852;4.400;2023-09-19T13:59:24;20.80;99.90
23579;DHT22;11967;50.852;4.400;2023-09-19T14:01:50;20.90;99.90
23579;DHT22;11967;50.852;4.400;2023-09-19T14:04:19;21.00;99.90
23579;DHT22;11967;50.852;4.400;2023-09-19T14:06:47;20.90;99.90
23579;DHT22;11967;50.852;4.400;2023-09-19T14:09:13;20.80;99.90
23579;DHT22;11967;50.852;4.400;2023-09-19T14:11:39;20.70;99.90
23579;DHT22;11967;50.852;4.400;2023-09-19T14:14:05;20.70;99.90
23579;DHT22;11967;50.852;4.400;2023-09-19T14:16:31;20.70;99.90
23579;DHT22;11967;50.852;4.400;2023-09-19T14:18:57;20.70;99.90
23579;DHT22;11967;50.852;4.400;2023-09-19T14:21:26;20.70;99.90
23579;DHT22;11967;50.852;4.400;2023-09-19T14:23:52;20.70;99.90
23579;DHT22;11967;50.852;4.400;2023-09-19T14:26:20;20.70;99.90
23579;DHT22;11967;50.852;4.400;2023-09-19T14:28:45;20.70;99.90
23579;DHT22;11967;50.852;4.400;2023-09-19T14:31:11;20.70;99.90
23579;DHT22;11967;50.852;4.400;2023-09-19T14:33:38;20.80;99.90
23579;DHT22;11967;50.852;4.400;2023-09-19T14:36:05;20.60;99.90
23579;DHT22;11967;50.852;4.400;2023-09-19T14:38:38;20.60;99.90
23579;DHT22;11967;50.852;4.400;2023-09-19T14:41:05;20.60;99.90
23579;DHT22;11967;50.852;4.400;2023-09-19T14:43:31;20.70;99.90
23579;DHT22;11967;50.852;4.400;2023-09-19T14:46:02;20.80;99.90
23579;DHT22;11967;50.852;4.400;2023-09-19T14:48:28;20.90;99.90
23579;DHT22;11967;50.852;4.400;2023-09-19T14:50:54;20.80;99.90
23579;DHT22;11967;50.852;4.400;2023-09-19T14:53:21;20.80;99.90
23579;DHT22;11967;50.852;4.400;2023-09-19T14:55:47;20.80;99.90
23579;DHT22;11967;50.852;4.400;2023-09-19T14:58:17;20.80;99.90
23579;DHT22;11967;50.852;4.400;2023-09-19T15:00:43;20.80;99.90
23579;DHT22;11967;50.852;4.400;2023-09-19T15:03:11;20.70;99.90
23579;DHT22;11967;50.852;4.400;2023-09-19T15:05:37;20.70;99.90
23579;DHT22;11967;50.852;4.400;2023-09-19T15:08:02;20.70;99.90
23579;DHT22;11967;50.852;4.400;2023-09-19T15:10:28;20.70;99.90
23579;DHT22;11967;50.852;4.400;2023-09-19T15:12:55;20.70;99.90
23579;DHT22;11967;50.852;4.400;2023-09-19T15:15:20;20.80;99.90
23579;DHT22;11967;50.852;4.400;2023-09-19T15:17:46;20.80;99.90
23579;DHT22;11967;50.852;4.400;2023-09-19T15:20:12;20.70;99.90
23579;DHT22;11967;50.852;4.400;2023-09-19T15:22:39;20.60;99.90
23579;DHT22;11967;50.852;4.400;2023-09-19T15:25:06;20.70;99.90
23579;DHT22;11967;50.852;4.400;2023-09-19T15:27:32;20.60;99.90
23579;DHT22;11967;50.852;4.400;2023-09-19T15:29:59;20.60;99.90
23579;DHT22;11967;50.852;4.400;2023-09-19T15:32:28;20.60;99.90
23579;DHT22;11967;50.852;4.400;2023-09-19T15:34:54;20.60;99.90
23579;DHT22;11967;50.852;4.400;2023-09-19T15:37:20;20.60;99.90
23579;DHT22;11967;50.852;4.400;2023-09-19T15:39:46;20.60;99.90
23579;DHT22;11967;50.852;4.400;2023-09-19T15:42:12;20.50;99.90
23579;DHT22;11967;50.852;4.400;2023-09-19T15:44:38;20.40;99.90
23579;DHT22;11967;50.852;4.400;2023-09-19T15:47:04;20.40;99.90
23579;DHT22;11967;50.852;4.400;2023-09-19T15:49:30;20.40;99.90
23579;DHT22;11967;50.852;4.400;2023-09-19T15:51:55;20.40;99.90
23579;DHT22;11967;50.852;4.400;2023-09-19T15:54:21;20.50;99.90
23579;DHT22;11967;50.852;4.400;2023-09-19T15:56:47;20.40;99.90
23579;DHT22;11967;50.852;4.400;2023-09-19T15:59:14;20.40;99.90
23579;DHT22;11967;50.852;4.400;2023-09-19T16:01:43;20.40;99.90
23579;DHT22;11967;50.852;4.400;2023-09-19T16:04:09;20.30;99.90
23579;DHT22;11967;50.852;4.400;2023-09-19T16:06:36;20.40;99.90
23579;DHT22;11967;50.852;4.400;2023-09-19T16:09:03;20.40;99.90
23579;DHT22;11967;50.852;4.400;2023-09-19T16:11:32;20.40;99.90
23579;DHT22;11967;50.852;4.400;2023-09-19T16:13:58;20.50;99.90
23579;DHT22;11967;50.852;4.400;2023-09-19T16:16:25;20.50;99.90
23579;DHT22;11967;50.852;4.400;2023-09-19T16:19:00;20.40;99.90
23579;DHT22;11967;50.852;4.400;2023-09-19T16:21:28;20.40;99.90
23579;DHT22;11967;50.852;4.400;2023-09-19T16:23:58;20.40;99.90